sensor_id;sensor_type;location;lat;lon;timestamp;temperature;humidity
41922;DHT22;27609;51.002;5.354;2022-11-23T00:00:26;9.00;99.90
41922;DHT22;27609;51.002;5.354;2022-11-23T00:02:53;9.00;99.90
41922;DHT22;27609;51.002;5.354;2022-11-23T00:05:18;9.00;99.90
41922;DHT22;27609;51.002;5.354;2022-11-23T00:07:44;8.90;99.90
41922;DHT22;27609;51.002;5.354;2022-11-23T00:10:10;9.00;99.90
41922;DHT22;27609;51.002;5.354;2022-11-23T00:12:36;8.90;99.90
41922;DHT22;27609;51.002;5.354;2022-11-23T00:15:02;9.00;99.90
41922;DHT22;27609;51.002;5.354;2022-11-23T00:17:28;9.00;99.90
41922;DHT22;27609;51.002;5.354;2022-11-23T00:19:53;9.10;99.90
41922;DHT22;27609;51.002;5.354;2022-11-23T00:22:19;9.10;99.90
41922;DHT22;27609;51.002;5.354;2022-11-23T00:24:45;9.10;99.90
41922;DHT22;27609;51.002;5.354;2022-11-23T00:27:11;9.10;99.90
41922;DHT22;27609;51.002;5.354;2022-11-23T00:29:37;9.10;99.90
41922;DHT22;27609;51.002;5.354;2022-11-23T00:32:02;9.00;99.90
41922;DHT22;27609;51.002;5.354;2022-11-23T00:34:28;9.10;99.90
41922;DHT22;27609;51.002;5.354;2022-11-23T00:36:54;9.10;99.90
41922;DHT22;27609;51.002;5.354;2022-11-23T00:39:19;9.10;99.90
41922;DHT22;27609;51.002;5.354;2022-11-23T00:41:45;9.10;99.90
41922;DHT22;27609;51.002;5.354;2022-11-23T00:44:10;9.10;99.90
41922;DHT22;27609;51.002;5.354;2022-11-23T00:46:36;9.10;99.90
41922;DHT22;27609;51.002;5.354;2022-11-23T00:49:02;9.10;99.90
41922;DHT22;27609;51.002;5.354;2022-11-23T00:51:30;9.10;99.90
41922;DHT22;27609;51.002;5.354;2022-11-23T00:53:57;9.00;99.90
41922;DHT22;27609;51.002;5.354;2022-11-23T00:56:25;9.00;99.90
41922;DHT22;27609;51.002;5.354;2022-11-23T00:58:52;9.10;99.90
41922;DHT22;27609;51.002;5.354;2022-11-23T01:01:20;9.10;99.90
41922;DHT22;27609;51.002;5.354;2022-11-23T01:03:48;9.00;99.90
41922;DHT22;27609;51.002;5.354;2022-11-23T01:06:17;9.00;99.90
41922;DHT22;27609;51.002;5.354;2022-11-23T01:08:54;9.00;99.90
41922;DHT22;27609;51.002;5.354;2022-11-23T01:11:21;8.90;99.90
41922;DHT22;27609;51.002;5.354;2022-11-23T01:13:47;8.90;99.90
41922;DHT22;27609;51.002;5.354;2022-11-23T01:16:15;8.90;99.90
41922;DHT22;27609;51.002;5.354;2022-11-23T01:18:41;8.90;99.90
41922;DHT22;27609;51.002;5.354;2022-11-23T01:21:07;8.90;99.90
41922;DHT22;27609;51.002;5.354;2022-11-23T01:23:33;8.90;99.90
41922;DHT22;27609;51.002;5.354;2022-11-23T01:26:09;8.90;99.90
41922;DHT22;27609;51.002;5.354;2022-11-23T01:28:36;8.90;99.90
41922;DHT22;27609;51.002;5.354;2022-11-23T01:31:04;8.80;99.90
41922;DHT22;27609;51.002;5.354;2022-11-23T01:33:30;8.80;99.90
41922;DHT22;27609;51.002;5.354;2022-11-23T01:35:55;8.80;99.90
41922;DHT22;27609;51.002;5.354;2022-11-23T01:38:21;8.90;99.90
41922;DHT22;27609;51.002;5.354;2022-11-23T01:40:47;8.80;99.90
41922;DHT22;27609;51.002;5.354;2022-11-23T01:43:15;8.80;99.90
41922;DHT22;27609;51.002;5.354;2022-11-23T01:45:43;8.80;99.90
41922;DHT22;27609;51.002;5.354;2022-11-23T01:48:20;8.90;99.90
41922;DHT22;27609;51.002;5.354;2022-11-23T01:50:49;8.80;99.90
41922;DHT22;27609;51.002;5.354;2022-11-23T01:53:16;8.80;99.90
41922;DHT22;27609;51.002;5.354;2022-11-23T01:55:43;8.80;99.90
41922;DHT22;27609;51.002;5.354;2022-11-23T01:58:12;8.80;99.90
41922;DHT22;27609;51.002;5.354;2022-11-23T02:00:38;8.70;99.90
41922;DHT22;27609;51.002;5.354;2022-11-23T02:03:04;8.80;99.90
41922;DHT22;27609;51.002;5.354;2022-11-23T02:05:39;8.80;99.90
41922;DHT22;27609;51.002;5.354;2022-11-23T02:08:06;8.80;99.90
41922;DHT22;27609;51.002;5.354;2022-11-23T02:10:33;8.70;99.90
41922;DHT22;27609;51.002;5.354;2022-11-23T02:13:02;8.70;99.90
41922;DHT22;27609;51.002;5.354;2022-11-23T02:15:28;8.70;99.90
41922;DHT22;27609;51.002;5.354;2022-11-23T02:17:54;8.80;99.90
41922;DHT22;27609;51.002;5.354;2022-11-23T02:20:19;8.80;99.90
41922;DHT22;27609;51.002;5.354;2022-11-23T02:28:07;8.70;99.90
41922;DHT22;27609;51.002;5.354;2022-11-23T02:30:34;8.80;99.90
41922;DHT22;27609;51.002;5.354;2022-11-23T02:33:05;8.80;99.90
41922;DHT22;27609;51.002;5.354;2022-11-23T02:35:32;8.80;99.90
41922;DHT22;27609;51.002;5.354;2022-11-23T02:37:59;8.80;99.90
41922;DHT22;27609;51.002;5.354;2022-11-23T02:40:34;8.80;99.90
41922;DHT22;27609;51.002;5.354;2022-11-23T02:43:01;8.80;99.90
41922;DHT22;27609;51.002;5.354;2022-11-23T02:45:38;8.80;99.90
41922;DHT22;27609;51.002;5.354;2022-11-23T02:48:05;8.80;99.90
41922;DHT22;27609;51.002;5.354;2022-11-23T02:50:31;8.90;99.90
41922;DHT22;27609;51.002;5.354;2022-11-23T02:52:56;8.80;99.90
41922;DHT22;27609;51.002;5.354;2022-11-23T02:55:22;8.80;99.90
41922;DHT22;27609;51.002;5.354;2022-11-23T02:57:48;8.80;99.90
41922;DHT22;27609;51.002;5.354;2022-11-23T03:00:14;8.80;99.90
41922;DHT22;27609;51.002;5.354;2022-11-23T03:02:40;8.80;99.90
41922;DHT22;27609;51.002;5.354;2022-11-23T03:05:06;8.80;99.90
41922;DHT22;27609;51.002;5.354;2022-11-23T03:07:32;8.90;99.90
41922;DHT22;27609;51.002;5.354;2022-11-23T03:09:58;8.80;99.90
41922;DHT22;27609;51.002;5.354;2022-11-23T03:12:24;8.80;99.90
41922;DHT22;27609;51.002;5.354;2022-11-23T03:14:49;8.80;99.90
41922;DHT22;27609;51.002;5.354;2022-11-23T03:17:15;8.80;99.90
41922;DHT22;27609;51.002;5.354;2022-11-23T03:19:40;8.80;99.90
41922;DHT22;27609;51.002;5.354;2022-11-23T03:22:06;8.90;99.90
41922;DHT22;27609;51.002;5.354;2022-11-23T03:24:32;8.80;99.90
41922;DHT22;27609;51.002;5.354;2022-11-23T03:26:58;8.80;99.90
41922;DHT22;27609;51.002;5.354;2022-11-23T03:29:24;8.80;99.90
41922;DHT22;27609;51.002;5.354;2022-11-23T03:31:52;8.80;99.90
41922;DHT22;27609;51.002;5.354;2022-11-23T03:34:17;8.70;99.90
41922;DHT22;27609;51.002;5.354;2022-11-23T03:36:43;8.80;99.90
41922;DHT22;27609;51.002;5.354;2022-11-23T03:39:08;8.80;99.90
41922;DHT22;27609;51.002;5.354;2022-11-23T03:41:34;8.70;99.90
41922;DHT22;27609;51.002;5.354;2022-11-23T03:44:00;8.70;99.90
41922;DHT22;27609;51.002;5.354;2022-11-23T03:46:26;8.80;99.90
41922;DHT22;27609;51.002;5.354;2022-11-23T03:48:51;8.70;99.90
41922;DHT22;27609;51.002;5.354;2022-11-23T03:51:17;8.70;99.90
41922;DHT22;27609;51.002;5.354;2022-11-23T03:53:42;8.70;99.90
41922;DHT22;27609;51.002;5.354;2022-11-23T03:56:08;8.70;99.90
41922;DHT22;27609;51.002;5.354;2022-11-23T03:58:34;8.70;99.90
41922;DHT22;27609;51.002;5.354;2022-11-23T04:00:59;8.70;99.90
41922;DHT22;27609;51.002;5.354;2022-11-23T04:03:25;8.70;99.90
41922;DHT22;27609;51.002;5.354;2022-11-23T04:05:51;8.70;99.90
41922;DHT22;27609;51.002;5.354;2022-11-23T04:08:16;8.70;99.90
41922;DHT22;27609;51.002;5.354;2022-11-23T04:10:42;8.60;99.90
41922;DHT22;27609;51.002;5.354;2022-11-23T04:13:08;8.70;99.90
41922;DHT22;27609;51.002;5.354;2022-11-23T04:15:33;8.70;99.90
41922;DHT22;27609;51.002;5.354;2022-11-23T04:17:59;8.70;99.90
41922;DHT22;27609;51.002;5.354;2022-11-23T04:20:25;8.70;99.90
41922;DHT22;27609;51.002;5.354;2022-11-23T04:22:50;8.60;99.90
41922;DHT22;27609;51.002;5.354;2022-11-23T04:25:16;8.60;99.90
41922;DHT22;27609;51.002;5.354;2022-11-23T04:27:42;8.60;99.90
41922;DHT22;27609;51.002;5.354;2022-11-23T04:30:08;8.60;99.90
41922;DHT22;27609;51.002;5.354;2022-11-23T04:32:34;8.70;99.90
41922;DHT22;27609;51.002;5.354;2022-11-23T04:34:59;8.60;99.90
41922;DHT22;27609;51.002;5.354;2022-11-23T04:37:25;8.60;99.90
41922;DHT22;27609;51.002;5.354;2022-11-23T04:39:51;8.60;99.90
41922;DHT22;27609;51.002;5.354;2022-11-23T04:42:16;8.70;99.90
41922;DHT22;27609;51.002;5.354;2022-11-23T04:44:42;8.70;99.90
41922;DHT22;27609;51.002;5.354;2022-11-23T04:47:12;8.60;99.90
41922;DHT22;27609;51.002;5.354;2022-11-23T04:49:38;8.70;99.90
41922;DHT22;27609;51.002;5.354;2022-11-23T04:52:03;8.60;99.90
41922;DHT22;27609;51.002;5.354;2022-11-23T04:54:29;8.60;99.90
41922;DHT22;27609;51.002;5.354;2022-11-23T04:56:55;8.60;99.90
41922;DHT22;27609;51.002;5.354;2022-11-23T04:59:21;8.50;99.90
41922;DHT22;27609;51.002;5.354;2022-11-23T05:01:48;8.60;99.90
41922;DHT22;27609;51.002;5.354;2022-11-23T05:04:13;8.60;99.90
41922;DHT22;27609;51.002;5.354;2022-11-23T05:06:39;8.60;99.90
41922;DHT22;27609;51.002;5.354;2022-11-23T05:09:05;8.60;99.90
41922;DHT22;27609;51.002;5.354;2022-11-23T05:11:30;8.60;99.90
41922;DHT22;27609;51.002;5.354;2022-11-23T05:13:56;8.60;99.90
41922;DHT22;27609;51.002;5.354;2022-11-23T05:16:22;8.50;99.90
41922;DHT22;27609;51.002;5.354;2022-11-23T05:18:47;8.50;99.90
41922;DHT22;27609;51.002;5.354;2022-11-23T05:21:13;8.50;99.90
41922;DHT22;27609;51.002;5.354;2022-11-23T05:23:38;8.40;99.90
41922;DHT22;27609;51.002;5.354;2022-11-23T05:26:04;8.40;99.90
41922;DHT22;27609;51.002;5.354;2022-11-23T05:28:30;8.40;99.90
41922;DHT22;27609;51.002;5.354;2022-11-23T05:30:55;8.40;99.90
41922;DHT22;27609;51.002;5.354;2022-11-23T05:33:21;8.40;99.90
41922;DHT22;27609;51.002;5.354;2022-11-23T05:35:47;8.40;99.90
41922;DHT22;27609;51.002;5.354;2022-11-23T05:38:12;8.40;99.90
41922;DHT22;27609;51.002;5.354;2022-11-23T05:40:38;8.40;99.90
41922;DHT22;27609;51.002;5.354;2022-11-23T05:43:04;8.30;99.90
41922;DHT22;27609;51.002;5.354;2022-11-23T05:45:29;8.20;99.90
41922;DHT22;27609;51.002;5.354;2022-11-23T05:47:56;8.20;99.90
41922;DHT22;27609;51.002;5.354;2022-11-23T05:50:23;8.10;99.90
41922;DHT22;27609;51.002;5.354;2022-11-23T05:52:50;8.10;99.90
41922;DHT22;27609;51.002;5.354;2022-11-23T05:55:16;7.90;99.90
41922;DHT22;27609;51.002;5.354;2022-11-23T05:57:41;7.90;99.90
41922;DHT22;27609;51.002;5.354;2022-11-23T06:00:08;7.90;99.90
41922;DHT22;27609;51.002;5.354;2022-11-23T06:02:37;7.90;99.90
41922;DHT22;27609;51.002;5.354;2022-11-23T06:05:04;7.90;99.90
41922;DHT22;27609;51.002;5.354;2022-11-23T06:07:33;7.80;99.90
41922;DHT22;27609;51.002;5.354;2022-11-23T06:09:59;7.80;99.90
41922;DHT22;27609;51.002;5.354;2022-11-23T06:12:24;7.70;99.90
41922;DHT22;27609;51.002;5.354;2022-11-23T06:14:51;7.70;99.90
41922;DHT22;27609;51.002;5.354;2022-11-23T06:17:16;7.60;99.90
41922;DHT22;27609;51.002;5.354;2022-11-23T06:19:42;7.60;99.90
41922;DHT22;27609;51.002;5.354;2022-11-23T06:22:08;7.60;99.90
41922;DHT22;27609;51.002;5.354;2022-11-23T06:24:33;7.70;99.90
41922;DHT22;27609;51.002;5.354;2022-11-23T06:26:59;7.60;99.90
41922;DHT22;27609;51.002;5.354;2022-11-23T06:29:25;7.60;99.90
41922;DHT22;27609;51.002;5.354;2022-11-23T06:31:50;7.50;99.90
41922;DHT22;27609;51.002;5.354;2022-11-23T06:34:16;7.60;99.90
41922;DHT22;27609;51.002;5.354;2022-11-23T06:36:41;7.60;99.90
41922;DHT22;27609;51.002;5.354;2022-11-23T06:39:08;7.70;99.90
41922;DHT22;27609;51.002;5.354;2022-11-23T06:41:34;7.70;99.90
41922;DHT22;27609;51.002;5.354;2022-11-23T06:44:00;7.70;99.90
41922;DHT22;27609;51.002;5.354;2022-11-23T06:46:25;7.70;99.90
41922;DHT22;27609;51.002;5.354;2022-11-23T06:48:51;7.80;99.90
41922;DHT22;27609;51.002;5.354;2022-11-23T06:51:16;7.70;99.90
41922;DHT22;27609;51.002;5.354;2022-11-23T06:53:42;7.60;99.90
41922;DHT22;27609;51.002;5.354;2022-11-23T06:56:08;7.70;99.90
41922;DHT22;27609;51.002;5.354;2022-11-23T06:58:34;7.70;99.90
41922;DHT22;27609;51.002;5.354;2022-11-23T07:01:05;7.70;99.90
41922;DHT22;27609;51.002;5.354;2022-11-23T07:03:31;7.70;99.90
41922;DHT22;27609;51.002;5.354;2022-11-23T07:05:56;7.70;99.90
41922;DHT22;27609;51.002;5.354;2022-11-23T07:08:22;7.60;99.90
41922;DHT22;27609;51.002;5.354;2022-11-23T07:10:48;7.60;99.90
41922;DHT22;27609;51.002;5.354;2022-11-23T07:13:14;7.70;99.90
41922;DHT22;27609;51.002;5.354;2022-11-23T07:15:40;7.50;99.90
41922;DHT22;27609;51.002;5.354;2022-11-23T07:18:08;7.50;99.90
41922;DHT22;27609;51.002;5.354;2022-11-23T07:20:34;7.50;99.90
41922;DHT22;27609;51.002;5.354;2022-11-23T07:23:05;7.40;99.90
41922;DHT22;27609;51.002;5.354;2022-11-23T07:25:33;7.40;99.90
41922;DHT22;27609;51.002;5.354;2022-11-23T07:28:00;7.50;99.90
41922;DHT22;27609;51.002;5.354;2022-11-23T07:30:27;7.40;99.90
41922;DHT22;27609;51.002;5.354;2022-11-23T07:32:53;7.50;99.90
41922;DHT22;27609;51.002;5.354;2022-11-23T07:35:23;7.40;99.90
41922;DHT22;27609;51.002;5.354;2022-11-23T07:37:48;7.50;99.90
41922;DHT22;27609;51.002;5.354;2022-11-23T07:40:14;7.50;99.90
41922;DHT22;27609;51.002;5.354;2022-11-23T07:42:40;7.50;99.90
41922;DHT22;27609;51.002;5.354;2022-11-23T07:45:06;7.50;99.90
41922;DHT22;27609;51.002;5.354;2022-11-23T07:47:32;7.50;99.90
41922;DHT22;27609;51.002;5.354;2022-11-23T07:49:58;7.50;99.90
41922;DHT22;27609;51.002;5.354;2022-11-23T07:52:23;7.50;99.90
41922;DHT22;27609;51.002;5.354;2022-11-23T07:54:49;7.60;99.90
41922;DHT22;27609;51.002;5.354;2022-11-23T07:57:15;7.60;99.90
41922;DHT22;27609;51.002;5.354;2022-11-23T07:59:41;7.60;99.90
41922;DHT22;27609;51.002;5.354;2022-11-23T08:02:10;7.60;99.90
41922;DHT22;27609;51.002;5.354;2022-11-23T08:04:36;7.60;99.90
41922;DHT22;27609;51.002;5.354;2022-11-23T08:07:02;7.60;99.90
41922;DHT22;27609;51.002;5.354;2022-11-23T08:09:28;7.60;99.90
41922;DHT22;27609;51.002;5.354;2022-11-23T08:11:53;7.70;99.90
41922;DHT22;27609;51.002;5.354;2022-11-23T08:14:19;7.90;99.90
41922;DHT22;27609;51.002;5.354;2022-11-23T08:16:48;8.40;99.90
41922;DHT22;27609;51.002;5.354;2022-11-23T08:19:15;8.70;99.90
41922;DHT22;27609;51.002;5.354;2022-11-23T08:21:40;8.90;99.90
41922;DHT22;27609;51.002;5.354;2022-11-23T08:24:06;8.90;99.90
41922;DHT22;27609;51.002;5.354;2022-11-23T08:26:32;9.10;99.90
41922;DHT22;27609;51.002;5.354;2022-11-23T08:28:57;9.30;99.90
41922;DHT22;27609;51.002;5.354;2022-11-23T08:31:24;9.60;99.90
41922;DHT22;27609;51.002;5.354;2022-11-23T08:33:49;9.80;99.90
41922;DHT22;27609;51.002;5.354;2022-11-23T08:36:15;9.60;99.90
41922;DHT22;27609;51.002;5.354;2022-11-23T08:38:41;9.90;99.90
41922;DHT22;27609;51.002;5.354;2022-11-23T08:41:06;10.10;99.90
41922;DHT22;27609;51.002;5.354;2022-11-23T08:43:32;10.20;99.90
41922;DHT22;27609;51.002;5.354;2022-11-23T08:46:00;10.30;99.90
41922;DHT22;27609;51.002;5.354;2022-11-23T08:48:26;10.10;99.90
41922;DHT22;27609;51.002;5.354;2022-11-23T08:50:52;10.10;99.90
41922;DHT22;27609;51.002;5.354;2022-11-23T08:53:18;10.30;99.90
41922;DHT22;27609;51.002;5.354;2022-11-23T08:55:43;10.40;99.90
41922;DHT22;27609;51.002;5.354;2022-11-23T08:58:09;10.50;99.90
41922;DHT22;27609;51.002;5.354;2022-11-23T09:00:36;10.70;99.90
41922;DHT22;27609;51.002;5.354;2022-11-23T09:03:02;10.90;99.90
41922;DHT22;27609;51.002;5.354;2022-11-23T09:05:29;10.90;99.90
41922;DHT22;27609;51.002;5.354;2022-11-23T09:07:58;11.20;99.90
41922;DHT22;27609;51.002;5.354;2022-11-23T09:10:24;11.40;99.90
41922;DHT22;27609;51.002;5.354;2022-11-23T09:12:49;11.70;99.90
41922;DHT22;27609;51.002;5.354;2022-11-23T09:15:15;11.50;99.90
41922;DHT22;27609;51.002;5.354;2022-11-23T09:17:41;11.70;99.90
41922;DHT22;27609;51.002;5.354;2022-11-23T09:20:07;12.00;99.90
41922;DHT22;27609;51.002;5.354;2022-11-23T09:22:34;12.00;99.90
41922;DHT22;27609;51.002;5.354;2022-11-23T09:25:00;12.30;99.90
41922;DHT22;27609;51.002;5.354;2022-11-23T09:27:26;12.30;99.90
41922;DHT22;27609;51.002;5.354;2022-11-23T09:29:51;12.30;99.90
41922;DHT22;27609;51.002;5.354;2022-11-23T09:32:17;11.90;99.90
41922;DHT22;27609;51.002;5.354;2022-11-23T09:34:42;12.10;99.90
41922;DHT22;27609;51.002;5.354;2022-11-23T09:37:10;12.50;99.90
41922;DHT22;27609;51.002;5.354;2022-11-23T09:39:36;12.60;99.90
41922;DHT22;27609;51.002;5.354;2022-11-23T09:50:42;12.70;99.90
41922;DHT22;27609;51.002;5.354;2022-11-23T09:53:21;12.70;99.90
41922;DHT22;27609;51.002;5.354;2022-11-23T09:55:50;12.80;99.90
41922;DHT22;27609;51.002;5.354;2022-11-23T09:58:19;12.40;99.90
41922;DHT22;27609;51.002;5.354;2022-11-23T10:00:54;12.50;99.90
41922;DHT22;27609;51.002;5.354;2022-11-23T10:03:23;12.60;99.90
41922;DHT22;27609;51.002;5.354;2022-11-23T10:08:34;12.80;99.90
41922;DHT22;27609;51.002;5.354;2022-11-23T10:11:28;12.80;99.90
41922;DHT22;27609;51.002;5.354;2022-11-23T10:22:28;13.70;99.90
41922;DHT22;27609;51.002;5.354;2022-11-23T10:24:55;13.50;99.90
41922;DHT22;27609;51.002;5.354;2022-11-23T10:27:22;13.40;99.90
41922;DHT22;27609;51.002;5.354;2022-11-23T10:29:49;13.30;99.90
41922;DHT22;27609;51.002;5.354;2022-11-23T10:32:59;13.80;99.90
41922;DHT22;27609;51.002;5.354;2022-11-23T10:35:33;13.20;99.90
41922;DHT22;27609;51.002;5.354;2022-11-23T10:38:26;13.60;99.90
41922;DHT22;27609;51.002;5.354;2022-11-23T10:46:36;12.00;99.90
41922;DHT22;27609;51.002;5.354;2022-11-23T10:49:20;11.70;99.90
41922;DHT22;27609;51.002;5.354;2022-11-23T10:51:59;11.50;99.90
41922;DHT22;27609;51.002;5.354;2022-11-23T10:57:32;11.60;99.90
41922;DHT22;27609;51.002;5.354;2022-11-23T11:00:13;11.80;99.90
41922;DHT22;27609;51.002;5.354;2022-11-23T11:02:39;11.80;99.90
41922;DHT22;27609;51.002;5.354;2022-11-23T11:07:50;13.80;99.90
41922;DHT22;27609;51.002;5.354;2022-11-23T11:13:43;13.50;99.90
41922;DHT22;27609;51.002;5.354;2022-11-23T11:16:25;14.20;99.90
41922;DHT22;27609;51.002;5.354;2022-11-23T11:18:52;14.20;99.90
41922;DHT22;27609;51.002;5.354;2022-11-23T11:21:23;14.30;99.90
41922;DHT22;27609;51.002;5.354;2022-11-23T11:23:53;14.70;99.90
41922;DHT22;27609;51.002;5.354;2022-11-23T11:26:22;14.60;99.90
41922;DHT22;27609;51.002;5.354;2022-11-23T11:28:50;14.30;99.90
41922;DHT22;27609;51.002;5.354;2022-11-23T11:34:08;13.90;99.90
41922;DHT22;27609;51.002;5.354;2022-11-23T11:36:40;14.20;99.90
41922;DHT22;27609;51.002;5.354;2022-11-23T11:39:22;13.90;99.90
41922;DHT22;27609;51.002;5.354;2022-11-23T11:41:51;13.90;99.90
41922;DHT22;27609;51.002;5.354;2022-11-23T11:44:21;14.10;99.90
41922;DHT22;27609;51.002;5.354;2022-11-23T11:47:07;14.10;99.90
41922;DHT22;27609;51.002;5.354;2022-11-23T11:49:40;14.00;99.90
41922;DHT22;27609;51.002;5.354;2022-11-23T11:52:13;13.80;99.90
41922;DHT22;27609;51.002;5.354;2022-11-23T11:54:47;13.60;99.90
41922;DHT22;27609;51.002;5.354;2022-11-23T11:57:23;14.10;99.90
41922;DHT22;27609;51.002;5.354;2022-11-23T11:59:55;13.70;99.90
41922;DHT22;27609;51.002;5.354;2022-11-23T12:07:34;13.40;99.90
41922;DHT22;27609;51.002;5.354;2022-11-23T12:10:17;13.40;99.90
41922;DHT22;27609;51.002;5.354;2022-11-23T12:12:43;13.30;99.90
41922;DHT22;27609;51.002;5.354;2022-11-23T12:15:20;13.30;99.90
41922;DHT22;27609;51.002;5.354;2022-11-23T12:20:48;12.90;99.90
41922;DHT22;27609;51.002;5.354;2022-11-23T12:26:26;12.70;99.90
41922;DHT22;27609;51.002;5.354;2022-11-23T12:31:50;12.60;99.90
41922;DHT22;27609;51.002;5.354;2022-11-23T12:35:26;12.70;99.90
41922;DHT22;27609;51.002;5.354;2022-11-23T12:42:48;12.20;99.90
41922;DHT22;27609;51.002;5.354;2022-11-23T12:58:33;11.80;99.90
41922;DHT22;27609;51.002;5.354;2022-11-23T13:13:25;11.80;99.90
41922;DHT22;27609;51.002;5.354;2022-11-23T13:16:27;11.80;99.90
41922;DHT22;27609;51.002;5.354;2022-11-23T13:18:58;11.80;99.90
41922;DHT22;27609;51.002;5.354;2022-11-23T13:21:34;11.70;99.90
41922;DHT22;27609;51.002;5.354;2022-11-23T13:24:01;11.60;99.90
41922;DHT22;27609;51.002;5.354;2022-11-23T13:26:27;11.60;99.90
41922;DHT22;27609;51.002;5.354;2022-11-23T13:28:55;11.60;99.90
41922;DHT22;27609;51.002;5.354;2022-11-23T13:31:31;11.40;99.90
41922;DHT22;27609;51.002;5.354;2022-11-23T13:34:02;11.20;99.90
41922;DHT22;27609;51.002;5.354;2022-11-23T13:38:53;11.00;99.90
41922;DHT22;27609;51.002;5.354;2022-11-23T13:44:37;10.70;99.90
41922;DHT22;27609;51.002;5.354;2022-11-23T13:49:51;10.30;99.90
41922;DHT22;27609;51.002;5.354;2022-11-23T13:52:32;10.00;99.90
41922;DHT22;27609;51.002;5.354;2022-11-23T13:57:34;9.80;99.90
41922;DHT22;27609;51.002;5.354;2022-11-23T14:06:38;9.70;99.90
41922;DHT22;27609;51.002;5.354;2022-11-23T14:09:29;9.70;99.90
41922;DHT22;27609;51.002;5.354;2022-11-23T14:12:17;9.60;99.90
41922;DHT22;27609;51.002;5.354;2022-11-23T14:32:07;9.10;99.90
41922;DHT22;27609;51.002;5.354;2022-11-23T14:37:35;9.10;99.90
41922;DHT22;27609;51.002;5.354;2022-11-23T14:40:36;9.00;99.90
41922;DHT22;27609;51.002;5.354;2022-11-23T14:43:02;9.00;99.90
41922;DHT22;27609;51.002;5.354;2022-11-23T14:45:31;8.90;99.90
41922;DHT22;27609;51.002;5.354;2022-11-23T14:51:03;8.80;99.90
41922;DHT22;27609;51.002;5.354;2022-11-23T14:53:33;8.70;99.90
41922;DHT22;27609;51.002;5.354;2022-11-23T14:55:59;8.70;99.90
41922;DHT22;27609;51.002;5.354;2022-11-23T14:58:27;8.70;99.90
41922;DHT22;27609;51.002;5.354;2022-11-23T15:00:59;8.60;99.90
41922;DHT22;27609;51.002;5.354;2022-11-23T15:03:29;8.60;99.90
41922;DHT22;27609;51.002;5.354;2022-11-23T15:06:07;8.60;99.90
41922;DHT22;27609;51.002;5.354;2022-11-23T15:11:43;8.50;99.90
41922;DHT22;27609;51.002;5.354;2022-11-23T15:14:25;8.50;99.90
41922;DHT22;27609;51.002;5.354;2022-11-23T15:16:51;8.50;99.90
41922;DHT22;27609;51.002;5.354;2022-11-23T15:19:28;8.50;99.90
41922;DHT22;27609;51.002;5.354;2022-11-23T15:21:55;8.50;99.90
41922;DHT22;27609;51.002;5.354;2022-11-23T15:24:23;8.50;99.90
41922;DHT22;27609;51.002;5.354;2022-11-23T15:26:49;8.50;99.90
41922;DHT22;27609;51.002;5.354;2022-11-23T15:29:35;8.50;99.90
41922;DHT22;27609;51.002;5.354;2022-11-23T15:32:02;8.50;99.90
41922;DHT22;27609;51.002;5.354;2022-11-23T15:34:29;8.50;99.90
41922;DHT22;27609;51.002;5.354;2022-11-23T15:36:55;8.50;99.90
41922;DHT22;27609;51.002;5.354;2022-11-23T15:39:23;8.50;99.90
41922;DHT22;27609;51.002;5.354;2022-11-23T15:41:50;8.40;99.90
41922;DHT22;27609;51.002;5.354;2022-11-23T15:44:25;8.50;99.90
41922;DHT22;27609;51.002;5.354;2022-11-23T15:46:55;8.40;99.90
41922;DHT22;27609;51.002;5.354;2022-11-23T15:49:22;8.40;99.90
41922;DHT22;27609;51.002;5.354;2022-11-23T15:51:48;8.40;99.90
41922;DHT22;27609;51.002;5.354;2022-11-23T15:54:21;8.40;99.90
41922;DHT22;27609;51.002;5.354;2022-11-23T15:56:51;8.40;99.90
41922;DHT22;27609;51.002;5.354;2022-11-23T15:59:46;8.40;99.90
41922;DHT22;27609;51.002;5.354;2022-11-23T16:02:20;8.30;99.90
41922;DHT22;27609;51.002;5.354;2022-11-23T16:04:46;8.30;99.90
41922;DHT22;27609;51.002;5.354;2022-11-23T16:07:23;8.30;99.90
41922;DHT22;27609;51.002;5.354;2022-11-23T16:10:01;8.20;99.90
41922;DHT22;27609;51.002;5.354;2022-11-23T16:12:32;8.20;99.90
41922;DHT22;27609;51.002;5.354;2022-11-23T16:20:43;8.30;99.90
41922;DHT22;27609;51.002;5.354;2022-11-23T16:23:20;8.30;99.90
41922;DHT22;27609;51.002;5.354;2022-11-23T16:25:58;8.30;99.90
41922;DHT22;27609;51.002;5.354;2022-11-23T16:28:34;8.30;99.90
41922;DHT22;27609;51.002;5.354;2022-11-23T16:31:01;8.30;99.90
41922;DHT22;27609;51.002;5.354;2022-11-23T16:33:27;8.30;99.90
41922;DHT22;27609;51.002;5.354;2022-11-23T16:35:53;8.10;99.90
41922;DHT22;27609;51.002;5.354;2022-11-23T16:38:19;8.20;99.90
41922;DHT22;27609;51.002;5.354;2022-11-23T16:40:45;8.10;99.90
41922;DHT22;27609;51.002;5.354;2022-11-23T16:43:14;8.10;99.90
41922;DHT22;27609;51.002;5.354;2022-11-23T16:45:42;8.10;99.90
41922;DHT22;27609;51.002;5.354;2022-11-23T16:50:49;8.10;99.90
41922;DHT22;27609;51.002;5.354;2022-11-23T16:53:16;8.20;99.90
41922;DHT22;27609;51.002;5.354;2022-11-23T16:55:46;8.20;99.90
41922;DHT22;27609;51.002;5.354;2022-11-23T16:58:14;8.20;99.90
41922;DHT22;27609;51.002;5.354;2022-11-23T17:00:41;8.20;99.90
41922;DHT22;27609;51.002;5.354;2022-11-23T17:03:17;8.10;99.90
41922;DHT22;27609;51.002;5.354;2022-11-23T17:05:43;8.10;99.90
41922;DHT22;27609;51.002;5.354;2022-11-23T17:08:09;8.00;99.90
41922;DHT22;27609;51.002;5.354;2022-11-23T17:10:39;8.00;99.90
41922;DHT22;27609;51.002;5.354;2022-11-23T17:13:25;7.90;99.90
41922;DHT22;27609;51.002;5.354;2022-11-23T17:15:51;7.90;99.90
41922;DHT22;27609;51.002;5.354;2022-11-23T17:18:17;7.90;99.90
41922;DHT22;27609;51.002;5.354;2022-11-23T17:20:43;8.00;99.90
41922;DHT22;27609;51.002;5.354;2022-11-23T17:23:10;8.00;99.90
41922;DHT22;27609;51.002;5.354;2022-11-23T17:25:36;7.80;99.90
41922;DHT22;27609;51.002;5.354;2022-11-23T17:28:04;7.70;99.90
41922;DHT22;27609;51.002;5.354;2022-11-23T17:30:30;7.70;99.90
41922;DHT22;27609;51.002;5.354;2022-11-23T17:32:57;7.70;99.90
41922;DHT22;27609;51.002;5.354;2022-11-23T17:35:24;7.70;99.90
41922;DHT22;27609;51.002;5.354;2022-11-23T17:37:50;7.70;99.90
41922;DHT22;27609;51.002;5.354;2022-11-23T17:40:19;7.70;99.90
41922;DHT22;27609;51.002;5.354;2022-11-23T17:42:46;7.70;99.90
41922;DHT22;27609;51.002;5.354;2022-11-23T17:45:12;7.60;99.90
41922;DHT22;27609;51.002;5.354;2022-11-23T17:47:38;7.60;99.90
41922;DHT22;27609;51.002;5.354;2022-11-23T17:50:08;7.60;99.90
41922;DHT22;27609;51.002;5.354;2022-11-23T17:52:35;7.50;99.90
41922;DHT22;27609;51.002;5.354;2022-11-23T17:55:00;7.60;99.90
41922;DHT22;27609;51.002;5.354;2022-11-23T17:57:26;7.60;99.90
41922;DHT22;27609;51.002;5.354;2022-11-23T17:59:52;7.60;99.90
41922;DHT22;27609;51.002;5.354;2022-11-23T18:02:19;7.50;99.90
41922;DHT22;27609;51.002;5.354;2022-11-23T18:04:45;7.60;99.90
41922;DHT22;27609;51.002;5.354;2022-11-23T18:07:12;7.80;99.90
41922;DHT22;27609;51.002;5.354;2022-11-23T18:09:39;7.50;99.90